VOZ63 YMML-YMLT
Flight info
| Callsign | VOZ63 |
|---|---|
| Flight time | 0h 48m |
| Altitude | 33000 |
| Route | ML H169 IRSOM W105 LT |
| Aircraft | B738/M-SDE2E3FGHIRWXY/LB1 |
Departure
| Time | 2026-04-14 07:02 |
|---|---|
| Airport | Melbourne Airport (YMML) |
Arrival
| Time | 2026-04-14 07:50 |
|---|---|
| Airport | Launceston Airport (YMLT) |
| Time | Latitude | Longitude | Altitude | Speed | Heading |
|---|---|---|---|---|---|
| 2026-04-14 06:47 | -37.67064 | 144.84674 | 390 ft | 0 kts | 171° |
| 2026-04-14 06:50 | -37.67054 | 144.84672 | 390 ft | 1 kts | 171° |
| 2026-04-14 06:51 | -37.67046 | 144.84671 | 390 ft | 1 kts | 171° |
| 2026-04-14 06:51 | -37.67037 | 144.84669 | 391 ft | 1 kts | 171° |
| 2026-04-14 06:51 | -37.67028 | 144.84667 | 391 ft | 1 kts | 171° |
| 2026-04-14 06:51 | -37.67019 | 144.84665 | 391 ft | 1 kts | 175° |
| 2026-04-14 06:52 | -37.67010 | 144.84665 | 391 ft | 1 kts | 204° |
| 2026-04-14 06:52 | -37.67002 | 144.84672 | 391 ft | 1 kts | 243° |
| 2026-04-14 06:52 | -37.67001 | 144.84672 | 391 ft | 0 kts | 261° |
| 2026-04-14 06:52 | -37.67001 | 144.84671 | 391 ft | 0 kts | 261° |
| 2026-04-14 06:54 | -37.67001 | 144.84670 | 391 ft | 1 kts | 261° |
| 2026-04-14 06:54 | -37.67001 | 144.84669 | 391 ft | 0 kts | 261° |
| 2026-04-14 06:55 | -37.67002 | 144.84662 | 391 ft | 0 kts | 263° |
| 2026-04-14 06:55 | -37.67002 | 144.84658 | 391 ft | 1 kts | 264° |
| 2026-04-14 06:56 | -37.67004 | 144.84639 | 391 ft | 3 kts | 264° |
| 2026-04-14 06:56 | -37.67006 | 144.84606 | 390 ft | 5 kts | 262° |
| 2026-04-14 06:56 | -37.67012 | 144.84563 | 389 ft | 6 kts | 259° |
| 2026-04-14 06:56 | -37.67017 | 144.84508 | 389 ft | 7 kts | 263° |
| 2026-04-14 06:57 | -37.67033 | 144.84450 | 387 ft | 8 kts | 242° |
| 2026-04-14 06:57 | -37.67049 | 144.84381 | 386 ft | 9 kts | 263° |
| 2026-04-14 06:57 | -37.67057 | 144.84301 | 385 ft | 10 kts | 273° |
| 2026-04-14 06:57 | -37.67020 | 144.84243 | 385 ft | 8 kts | 339° |
| 2026-04-14 06:58 | -37.66972 | 144.84228 | 386 ft | 6 kts | 348° |
| 2026-04-14 06:58 | -37.66935 | 144.84219 | 387 ft | 5 kts | 351° |
| 2026-04-14 06:58 | -37.66876 | 144.84208 | 389 ft | 16 kts | 351° |
| 2026-04-14 06:58 | -37.66754 | 144.84184 | 393 ft | 17 kts | 351° |
| 2026-04-14 06:59 | -37.66651 | 144.84166 | 396 ft | 13 kts | 353° |
| 2026-04-14 06:59 | -37.66574 | 144.84192 | 401 ft | 12 kts | 37° |
| 2026-04-14 06:59 | -37.66531 | 144.84284 | 399 ft | 13 kts | 71° |
| 2026-04-14 06:59 | -37.66514 | 144.84410 | 403 ft | 16 kts | 82° |
| 2026-04-14 07:00 | -37.66499 | 144.84553 | 405 ft | 17 kts | 82° |
| 2026-04-14 07:00 | -37.66476 | 144.84697 | 407 ft | 15 kts | 66° |
| 2026-04-14 07:00 | -37.66411 | 144.84771 | 410 ft | 11 kts | 21° |
| 2026-04-14 07:00 | -37.66345 | 144.84783 | 410 ft | 7 kts | 4° |
| 2026-04-14 07:01 | -37.66304 | 144.84787 | 407 ft | 10 kts | 6° |
| 2026-04-14 07:01 | -37.66229 | 144.84744 | 407 ft | 16 kts | 294° |
| 2026-04-14 07:01 | -37.66208 | 144.84463 | 410 ft | 62 kts | 274° |
| 2026-04-14 07:01 | -37.66158 | 144.83618 | 416 ft | 129 kts | 273° |
| 2026-04-14 07:02 | -37.66104 | 144.82323 | 785 ft | 159 kts | 272° |
| 2026-04-14 07:02 | -37.66061 | 144.80886 | 1642 ft | 168 kts | 272° |
| 2026-04-14 07:02 | -37.65974 | 144.79349 | 2439 ft | 185 kts | 274° |
| 2026-04-14 07:02 | -37.65835 | 144.77673 | 3086 ft | 200 kts | 275° |
| 2026-04-14 07:03 | -37.65700 | 144.75853 | 3704 ft | 218 kts | 274° |
| 2026-04-14 07:03 | -37.65577 | 144.73888 | 4581 ft | 230 kts | 273° |
| 2026-04-14 07:03 | -37.65545 | 144.71792 | 5343 ft | 246 kts | 262° |
| 2026-04-14 07:03 | -37.66090 | 144.69734 | 6387 ft | 251 kts | 240° |
| 2026-04-14 07:04 | -37.67230 | 144.68046 | 7382 ft | 257 kts | 220° |
| 2026-04-14 07:04 | -37.68758 | 144.66828 | 8399 ft | 263 kts | 213° |
| 2026-04-14 07:04 | -37.70332 | 144.65633 | 9422 ft | 266 kts | 215° |
| 2026-04-14 07:04 | -37.71945 | 144.64423 | 10370 ft | 273 kts | 209° |
| 2026-04-14 07:05 | -37.73825 | 144.63869 | 11273 ft | 287 kts | 186° |
| 2026-04-14 07:05 | -37.75864 | 144.64436 | 11808 ft | 318 kts | 158° |
| 2026-04-14 07:05 | -37.77826 | 144.65937 | 12368 ft | 338 kts | 152° |
| 2026-04-14 07:05 | -37.79850 | 144.67556 | 13045 ft | 349 kts | 153° |
| 2026-04-14 07:06 | -37.81915 | 144.69137 | 13868 ft | 354 kts | 154° |
| 2026-04-14 07:06 | -37.84056 | 144.70720 | 14660 ft | 359 kts | 155° |
| 2026-04-14 07:06 | -37.86233 | 144.72320 | 15463 ft | 364 kts | 155° |
| 2026-04-14 07:06 | -37.88433 | 144.73960 | 16283 ft | 368 kts | 154° |
| 2026-04-14 07:07 | -37.90646 | 144.75633 | 17103 ft | 373 kts | 154° |
| 2026-04-14 07:07 | -37.92892 | 144.77338 | 17894 ft | 378 kts | 154° |
| 2026-04-14 07:07 | -37.95164 | 144.79056 | 18663 ft | 383 kts | 154° |
| 2026-04-14 07:07 | -37.97466 | 144.80789 | 19346 ft | 387 kts | 154° |
| 2026-04-14 07:08 | -37.99791 | 144.82538 | 20026 ft | 392 kts | 154° |
| 2026-04-14 07:08 | -38.02154 | 144.84319 | 20717 ft | 396 kts | 154° |
| 2026-04-14 07:08 | -38.04543 | 144.86126 | 21392 ft | 401 kts | 154° |
| 2026-04-14 07:08 | -38.06947 | 144.87946 | 22055 ft | 405 kts | 154° |
| 2026-04-14 07:09 | -38.09354 | 144.89769 | 22699 ft | 410 kts | 154° |
| 2026-04-14 07:09 | -38.11812 | 144.91631 | 23341 ft | 414 kts | 154° |
| 2026-04-14 07:09 | -38.14301 | 144.93517 | 23933 ft | 418 kts | 154° |
| 2026-04-14 07:09 | -38.16813 | 144.95422 | 24469 ft | 422 kts | 154° |
| 2026-04-14 07:10 | -38.19352 | 144.97350 | 24948 ft | 428 kts | 155° |
| 2026-04-14 07:10 | -38.21918 | 144.99300 | 25440 ft | 432 kts | 155° |
| 2026-04-14 07:10 | -38.24505 | 145.01268 | 25934 ft | 436 kts | 155° |
| 2026-04-14 07:10 | -38.27119 | 145.03259 | 26403 ft | 440 kts | 155° |
| 2026-04-14 07:11 | -38.29758 | 145.05269 | 26867 ft | 443 kts | 155° |
| 2026-04-14 07:11 | -38.32421 | 145.07300 | 27323 ft | 447 kts | 155° |
| 2026-04-14 07:11 | -38.35096 | 145.09341 | 27772 ft | 450 kts | 155° |
| 2026-04-14 07:11 | -38.37790 | 145.11399 | 28185 ft | 454 kts | 155° |
| 2026-04-14 07:12 | -38.40516 | 145.13483 | 28605 ft | 457 kts | 155° |
| 2026-04-14 07:12 | -38.43252 | 145.15579 | 29144 ft | 458 kts | 155° |
| 2026-04-14 07:12 | -38.45984 | 145.17674 | 29662 ft | 458 kts | 155° |
| 2026-04-14 07:12 | -38.48717 | 145.19771 | 30195 ft | 458 kts | 155° |
| 2026-04-14 07:13 | -38.51479 | 145.21630 | 30626 ft | 450 kts | 165° |
| 2026-04-14 07:13 | -38.54405 | 145.22960 | 31110 ft | 446 kts | 168° |
| 2026-04-14 07:13 | -38.57337 | 145.24231 | 31551 ft | 445 kts | 168° |
| 2026-04-14 07:13 | -38.60277 | 145.25514 | 32006 ft | 445 kts | 168° |
| 2026-04-14 07:14 | -38.63204 | 145.26804 | 32469 ft | 444 kts | 168° |
| 2026-04-14 07:14 | -38.65179 | 145.27680 | 32779 ft | 444 kts | 168° |
| 2026-04-14 07:14 | -38.69063 | 145.29399 | 33133 ft | 449 kts | 169° |
| 2026-04-14 07:15 | -38.73961 | 145.31559 | 33153 ft | 442 kts | 169° |
| 2026-04-14 07:15 | -38.79730 | 145.34117 | 33159 ft | 439 kts | 169° |
| 2026-04-14 07:16 | -38.85507 | 145.36665 | 33154 ft | 438 kts | 169° |
| 2026-04-14 07:16 | -38.91281 | 145.39231 | 33169 ft | 439 kts | 169° |
| 2026-04-14 07:17 | -38.97017 | 145.41782 | 33154 ft | 439 kts | 169° |
| 2026-04-14 07:17 | -39.02787 | 145.44350 | 33149 ft | 439 kts | 169° |
| 2026-04-14 07:18 | -39.08559 | 145.46925 | 33146 ft | 439 kts | 169° |
| 2026-04-14 07:18 | -39.14336 | 145.49506 | 33150 ft | 439 kts | 169° |
| 2026-04-14 07:19 | -39.20114 | 145.52093 | 33136 ft | 439 kts | 169° |
| 2026-04-14 07:19 | -39.25855 | 145.54667 | 33140 ft | 439 kts | 169° |
| 2026-04-14 07:20 | -39.31621 | 145.57257 | 33128 ft | 439 kts | 169° |
| 2026-04-14 07:20 | -39.37407 | 145.59860 | 33126 ft | 439 kts | 169° |
| 2026-04-14 07:21 | -39.43179 | 145.62462 | 33127 ft | 439 kts | 169° |
| 2026-04-14 07:21 | -39.48953 | 145.65069 | 33123 ft | 439 kts | 169° |
| 2026-04-14 07:22 | -39.54722 | 145.67679 | 33133 ft | 439 kts | 169° |
| 2026-04-14 07:22 | -39.60457 | 145.70278 | 33121 ft | 439 kts | 169° |
| 2026-04-14 07:23 | -39.66231 | 145.72899 | 33111 ft | 439 kts | 169° |
| 2026-04-14 07:23 | -39.72000 | 145.75523 | 33106 ft | 439 kts | 169° |
| 2026-04-14 07:24 | -39.77735 | 145.78135 | 33128 ft | 439 kts | 169° |
| 2026-04-14 07:24 | -39.83560 | 145.80786 | 33111 ft | 449 kts | 169° |
| 2026-04-14 07:25 | -39.89521 | 145.83508 | 33102 ft | 458 kts | 169° |
| 2026-04-14 07:25 | -39.95555 | 145.86285 | 33092 ft | 460 kts | 169° |
| 2026-04-14 07:26 | -40.01556 | 145.89045 | 33104 ft | 456 kts | 169° |
| 2026-04-14 07:26 | -40.07543 | 145.91808 | 33083 ft | 455 kts | 169° |
| 2026-04-14 07:27 | -40.13515 | 145.94585 | 33078 ft | 456 kts | 169° |
| 2026-04-14 07:27 | -40.19466 | 145.97352 | 33073 ft | 451 kts | 169° |
| 2026-04-14 07:28 | -40.25358 | 146.00091 | 33083 ft | 450 kts | 170° |
| 2026-04-14 07:28 | -40.31251 | 146.02839 | 33072 ft | 449 kts | 170° |
| 2026-04-14 07:29 | -40.37145 | 146.05593 | 33061 ft | 449 kts | 169° |
| 2026-04-14 07:29 | -40.43042 | 146.08353 | 33057 ft | 450 kts | 169° |
| 2026-04-14 07:30 | -40.48935 | 146.11116 | 33071 ft | 450 kts | 170° |
| 2026-04-14 07:30 | -40.54830 | 146.13886 | 32600 ft | 454 kts | 170° |
| 2026-04-14 07:30 | -40.57804 | 146.15276 | 31846 ft | 459 kts | 169° |
| 2026-04-14 07:31 | -40.60808 | 146.16692 | 31253 ft | 459 kts | 169° |
| 2026-04-14 07:31 | -40.63815 | 146.18118 | 30676 ft | 458 kts | 169° |
| 2026-04-14 07:31 | -40.66812 | 146.19539 | 30095 ft | 458 kts | 169° |
| 2026-04-14 07:31 | -40.69815 | 146.20958 | 29493 ft | 456 kts | 169° |
| 2026-04-14 07:32 | -40.72795 | 146.22364 | 28883 ft | 454 kts | 169° |
| 2026-04-14 07:32 | -40.75772 | 146.23771 | 28304 ft | 452 kts | 169° |
| 2026-04-14 07:32 | -40.78729 | 146.25171 | 27714 ft | 450 kts | 169° |
| 2026-04-14 07:32 | -40.81663 | 146.26563 | 27140 ft | 448 kts | 169° |
| 2026-04-14 07:33 | -40.84590 | 146.27953 | 26544 ft | 446 kts | 169° |
| 2026-04-14 07:33 | -40.87473 | 146.29322 | 25959 ft | 445 kts | 169° |
| 2026-04-14 07:33 | -40.90380 | 146.30703 | 25367 ft | 444 kts | 169° |
| 2026-04-14 07:34 | -40.98990 | 146.34815 | 23563 ft | 429 kts | 169° |
| 2026-04-14 07:34 | -41.01779 | 146.36148 | 22884 ft | 422 kts | 169° |
| 2026-04-14 07:34 | -41.04515 | 146.37454 | 22281 ft | 414 kts | 169° |
| 2026-04-14 07:35 | -41.07202 | 146.38736 | 21685 ft | 407 kts | 169° |
| 2026-04-14 07:35 | -41.09809 | 146.39983 | 21192 ft | 398 kts | 169° |
| 2026-04-14 07:35 | -41.12390 | 146.41221 | 20689 ft | 391 kts | 169° |
| 2026-04-14 07:35 | -41.14922 | 146.42483 | 20135 ft | 390 kts | 165° |
| 2026-04-14 07:36 | -41.17263 | 146.44383 | 19579 ft | 402 kts | 148° |
| 2026-04-14 07:36 | -41.19193 | 146.47130 | 18861 ft | 414 kts | 134° |
| 2026-04-14 07:36 | -41.20907 | 146.50226 | 18078 ft | 417 kts | 131° |
| 2026-04-14 07:36 | -41.22539 | 146.53416 | 17340 ft | 416 kts | 128° |
| 2026-04-14 07:37 | -41.24047 | 146.56690 | 16645 ft | 414 kts | 126° |
| 2026-04-14 07:37 | -41.25492 | 146.59982 | 15963 ft | 410 kts | 126° |
| 2026-04-14 07:37 | -41.26945 | 146.63209 | 15319 ft | 405 kts | 127° |
| 2026-04-14 07:37 | -41.28435 | 146.66371 | 14663 ft | 401 kts | 128° |
| 2026-04-14 07:38 | -41.29935 | 146.69484 | 13996 ft | 398 kts | 128° |
| 2026-04-14 07:38 | -41.31414 | 146.72583 | 13295 ft | 395 kts | 128° |
| 2026-04-14 07:38 | -41.32836 | 146.75625 | 12601 ft | 390 kts | 127° |
| 2026-04-14 07:38 | -41.34254 | 146.78696 | 11935 ft | 385 kts | 127° |
| 2026-04-14 07:39 | -41.35648 | 146.81713 | 11272 ft | 380 kts | 127° |
| 2026-04-14 07:39 | -41.37035 | 146.84694 | 10606 ft | 376 kts | 127° |
| 2026-04-14 07:39 | -41.38385 | 146.87584 | 10175 ft | 364 kts | 126° |
| 2026-04-14 07:39 | -41.39692 | 146.90396 | 10050 ft | 343 kts | 126° |
| 2026-04-14 07:40 | -41.40906 | 146.92984 | 9877 ft | 324 kts | 129° |
| 2026-04-14 07:40 | -41.42316 | 146.95268 | 9399 ft | 315 kts | 138° |
| 2026-04-14 07:40 | -41.43782 | 146.97428 | 8956 ft | 311 kts | 139° |
| 2026-04-14 07:40 | -41.45185 | 146.99505 | 8931 ft | 299 kts | 138° |
| 2026-04-14 07:41 | -41.46605 | 147.01623 | 8369 ft | 310 kts | 137° |
| 2026-04-14 07:41 | -41.48023 | 147.03767 | 7889 ft | 307 kts | 137° |
| 2026-04-14 07:41 | -41.49422 | 147.05900 | 7462 ft | 302 kts | 137° |
| 2026-04-14 07:41 | -41.50798 | 147.07997 | 7043 ft | 297 kts | 137° |
| 2026-04-14 07:42 | -41.52158 | 147.10058 | 6647 ft | 292 kts | 137° |
| 2026-04-14 07:42 | -41.53499 | 147.12080 | 6272 ft | 288 kts | 137° |
| 2026-04-14 07:42 | -41.54799 | 147.14040 | 5891 ft | 284 kts | 137° |
| 2026-04-14 07:42 | -41.56165 | 147.15884 | 5492 ft | 274 kts | 146° |
| 2026-04-14 07:43 | -41.57637 | 147.17448 | 5138 ft | 268 kts | 148° |
| 2026-04-14 07:43 | -41.59108 | 147.18984 | 4768 ft | 269 kts | 147° |
| 2026-04-14 07:43 | -41.60570 | 147.20500 | 4556 ft | 256 kts | 147° |
| 2026-04-14 07:43 | -41.61933 | 147.21903 | 4416 ft | 237 kts | 148° |
| 2026-04-14 07:44 | -41.63198 | 147.23198 | 4309 ft | 220 kts | 148° |
| 2026-04-14 07:44 | -41.64360 | 147.24363 | 4237 ft | 205 kts | 149° |
| 2026-04-14 07:44 | -41.65505 | 147.25498 | 4181 ft | 204 kts | 149° |
| 2026-04-14 07:44 | -41.66642 | 147.26614 | 4133 ft | 200 kts | 150° |
| 2026-04-14 07:45 | -41.67746 | 147.27689 | 4076 ft | 193 kts | 149° |
| 2026-04-14 07:45 | -41.68833 | 147.28752 | 3976 ft | 199 kts | 146° |
| 2026-04-14 07:45 | -41.69639 | 147.30265 | 3756 ft | 207 kts | 105° |
| 2026-04-14 07:45 | -41.69499 | 147.32122 | 3560 ft | 202 kts | 57° |
| 2026-04-14 07:46 | -41.68523 | 147.33244 | 3395 ft | 178 kts | 9° |
| 2026-04-14 07:46 | -41.67357 | 147.33303 | 3338 ft | 161 kts | 340° |
| 2026-04-14 07:46 | -41.66386 | 147.32693 | 3298 ft | 152 kts | 314° |
| 2026-04-14 07:46 | -41.65866 | 147.31477 | 3171 ft | 153 kts | 287° |
| 2026-04-14 07:47 | -41.65333 | 147.30251 | 2915 ft | 152 kts | 319° |
| 2026-04-14 07:47 | -41.64353 | 147.29662 | 2754 ft | 160 kts | 331° |
| 2026-04-14 07:47 | -41.63453 | 147.28882 | 2524 ft | 151 kts | 319° |
| 2026-04-14 07:47 | -41.62609 | 147.28104 | 2331 ft | 143 kts | 321° |
| 2026-04-14 07:48 | -41.61834 | 147.27419 | 2126 ft | 128 kts | 322° |
| 2026-04-14 07:48 | -41.61092 | 147.26768 | 1967 ft | 125 kts | 323° |
| 2026-04-14 07:48 | -41.60377 | 147.26147 | 1827 ft | 123 kts | 324° |
| 2026-04-14 07:48 | -41.59645 | 147.25514 | 1639 ft | 125 kts | 326° |
| 2026-04-14 07:49 | -41.58916 | 147.24888 | 1477 ft | 125 kts | 324° |
| 2026-04-14 07:49 | -41.58198 | 147.24269 | 1305 ft | 120 kts | 325° |
| 2026-04-14 07:49 | -41.57477 | 147.23643 | 1203 ft | 129 kts | 326° |
| 2026-04-14 07:49 | -41.56732 | 147.22993 | 981 ft | 126 kts | 328° |
| 2026-04-14 07:50 | -41.56011 | 147.22397 | 792 ft | 120 kts | 326° |
| 2026-04-14 07:50 | -41.55302 | 147.21778 | 685 ft | 125 kts | 330° |
| 2026-04-14 07:50 | -41.54613 | 147.21192 | 592 ft | 99 kts | 328° |
| 2026-04-14 07:50 | -41.54228 | 147.20865 | 592 ft | 37 kts | 328° |
| 2026-04-14 07:51 | -41.54045 | 147.20693 | 589 ft | 21 kts | 297° |
| 2026-04-14 07:51 | -41.54095 | 147.20567 | 583 ft | 18 kts | 175° |
| 2026-04-14 07:51 | -41.54195 | 147.20644 | 583 ft | 12 kts | 146° |
| 2026-04-14 07:51 | -41.54223 | 147.20640 | 583 ft | 2 kts | 242° |
| 2026-04-14 07:52 | -41.54220 | 147.20617 | 583 ft | 0 kts | 287° |